Terminal Aerodrome Forecast
Issued by NWS Charleston, WV

Current Version | Previous Version | Graphics & Text | Print | Product List | Glossary On
Versions: 1 2 3 4 5 6 7 8 9 10 11 12 13 14 15 16 17 18 19 20 21 22 23 24 25 26 27 28 29 30 31 32 33 34 35 36 37 38 39
090
FTUS41 KRLX 300819 AAA
TAFHTS
TAF AMD
KHTS 300819Z 3008/3106 00000KT 6SM BR SCT005 OVC015
      TEMPO 3008/3012 4SM BR SCT015 BKN025
     FM301300 00000KT 6SM BR HZ BKN008
     FM301400 00000KT P6SM BKN015
     FM301500 00000KT P6SM BKN025
     FM301600 VRB03KT P6SM BKN040
     FM302000 23004KT P6SM SHRA VCTS BKN040CB
     FM302300 24004KT P6SM BKN040=

USA.gov is the U.S. government's official web portal to all federal, state and local government web resources and services.